Time;durP1;ratioP1;P1;durP2;ratioP2;P2;SDS_P1;SDS_P2;PMS_P1;PMS_P2;Temp;Humidity;BMP_temperature;BMP_pressure;BME280_temperature;BME280_humidity;BME280_pressure;Samples;Min_cycle;Max_cycle;Signal;HPM_P1;HPM_P2
2023/09/22 05:03:28;;;;;;;;;;;;;;;18.99;66.93;95855.31;4239906;27;10248;-64
2023/09/22 05:05:32;;;;;;;;;;;;;;;19.26;66.27;95863.06;4248145;27;5672;-64
2023/09/22 05:07:35;;;;;;;;;;;;;;;19.46;65.58;95867.56;4244102;27;5904;-63
2023/09/22 05:09:43;;;;;;;;;;;;;;;19.64;64.98;95871.56;4248607;27;5647;-64
2023/09/22 05:11:46;;;;;;;;;;;;;;;19.76;64.64;95856.78;4246634;27;5695;-64
2023/09/22 05:13:49;;;;;;;;;;;;;;;19.86;63.87;95857.84;4243361;27;5742;-63
2023/09/22 05:15:52;;;;;;;;;;;;;;;19.94;63.72;95850.03;4244677;27;5108;-64
2023/09/22 05:17:56;;;;;;;;;;;;;;;20.01;63.00;95850.50;4244944;27;5685;-64
2023/09/22 05:20:00;;;;;;;;;;;;;;;20.10;62.74;95840.00;4245933;27;5103;-64
2023/09/22 05:22:03;;;;;;;;;;;;;;;20.17;62.46;95837.03;4245228;27;5874;-65
2023/09/22 05:24:06;;;;;;;;;;;;;;;20.21;61.89;95848.81;4244688;27;5598;-65
2023/09/22 05:26:09;;;;;;;;;;;;;;;20.23;61.63;95868.13;4244036;27;5613;-65
2023/09/22 05:28:12;;;;;;;;;;;;;;;20.24;60.76;95872.41;4236636;27;5606;-64
2023/09/22 05:30:14;;;;;;;;;;;;;;;20.23;60.51;95871.59;4245420;27;5762;-65
2023/09/22 05:32:18;;;;;;;;;;;;;;;20.22;59.63;95869.19;4248196;27;5606;-67
2023/09/22 05:34:21;;;;;;;;;;;;;;;20.23;59.99;95871.59;4240746;27;5823;-64
2023/09/22 05:36:27;;;;;;;;;;;;;;;20.24;59.38;95867.84;4239097;27;5954;-64
2023/09/22 05:38:30;;;;;;;;;;;;;;;20.27;59.23;95874.53;4246405;27;6068;-66
2023/09/22 05:40:34;;;;;;;;;;;;;;;20.27;58.93;95875.34;4247893;27;6284;-66
2023/09/22 05:42:36;;;;;;;;;;;;;;;20.28;58.37;95878.84;4248420;27;5700;-68
2023/09/22 05:44:39;;;;;;;;;;;;;;;20.28;58.46;95879.63;4248347;27;6235;-63
2023/09/22 05:46:42;;;;;;;;;;;;;;;20.30;57.93;95884.72;4248486;27;5725;-64
2023/09/22 05:48:46;;;;;;;;;;;;;;;20.31;57.68;95889.00;4245282;27;5735;-64
2023/09/22 05:50:56;;;;;;;;;;;;;;;20.31;57.96;95889.81;4240253;27;5518;-64
2023/09/22 05:53:00;;;;;;;;;;;;;;;20.31;57.44;95889.81;4247911;27;7659;-65
2023/09/22 05:55:04;;;;;;;;;;;;;;;20.28;57.61;95885.00;4245927;27;5661;-65
2023/09/22 05:57:07;;;;;;;;;;;;;;;20.26;57.44;95891.72;4243580;27;5687;-66
2023/09/22 05:59:10;;;;;;;;;;;;;;;20.24;57.61;95889.31;4237391;27;5614;-66
2023/09/22 06:01:14;;;;;;;;;;;;;;;20.25;57.56;95898.16;4241133;27;5690;-65
2023/09/22 06:03:19;;;;;;;;;;;;;;;20.25;57.49;95895.47;4241721;27;5675;-65
2023/09/22 06:05:23;;;;;;;;;;;;;;;20.23;57.79;95895.75;4228479;28;5685;-65
2023/09/22 06:07:25;;;;;;;;;;;;;;;20.20;57.46;95892.81;4228208;28;5593;-65
2023/09/22 06:09:31;;;;;;;;;;;;;;;20.18;57.27;95893.09;4235785;28;5754;-67
2023/09/22 06:11:33;;;;;;;;;;;;;;;20.14;57.14;95889.34;4236165;27;5825;-64
2023/09/22 06:13:36;;;;;;;;;;;;;;;20.12;57.35;95888.81;4235736;28;6199;-64
2023/09/22 06:15:39;;;;;;;;;;;;;;;20.14;57.21;95888.53;4235901;28;5655;-64
2023/09/22 06:17:42;;;;;;;;;;;;;;;20.14;57.52;95892.03;4227604;28;5741;-64
2023/09/22 06:19:44;;;;;;;;;;;;;;;20.14;57.13;95889.34;4233206;28;5685;-64
2023/09/22 06:21:47;;;;;;;;;;;;;;;20.13;57.11;95886.94;4230576;28;6275;-64
2023/09/22 06:23:51;;;;;;;;;;;;;;;20.13;57.01;95886.94;4235904;28;5586;-64
2023/09/22 06:26:02;;;;;;;;;;;;;;;20.14;57.12;95883.97;4223411;28;5771;-65
2023/09/22 06:28:06;;;;;;;;;;;;;;;20.14;56.87;95888.53;4233018;28;5651;-66
2023/09/22 06:30:11;;;;;;;;;;;;;;;20.13;57.02;95887.75;4225093;28;6853;-65
2023/09/22 06:32:14;;;;;;;;;;;;;;;20.15;56.89;95896.31;4235723;28;5585;-65
2023/09/22 06:34:16;;;;;;;;;;;;;;;20.15;56.42;95896.31;4235795;28;5768;-65
2023/09/22 06:36:19;;;;;;;;;;;;;;;20.13;56.66;95901.16;4235798;28;5582;-65
2023/09/22 06:38:23;;;;;;;;;;;;;;;20.16;56.21;95900.63;4235541;28;5660;-65
2023/09/22 06:40:26;;;;;;;;;;;;;;;20.16;56.29;95899.81;4227370;28;5655;-65
2023/09/22 06:42:31;;;;;;;;;;;;;;;20.17;56.11;95910.28;4227468;28;5616;-65
2023/09/22 06:44:34;;;;;;;;;;;;;;;20.16;56.20;95910.53;4227392;28;5598;-65
2023/09/22 06:46:37;;;;;;;;;;;;;;;20.16;56.07;95903.31;4228670;28;5612;-65
2023/09/22 06:48:39;;;;;;;;;;;;;;;20.15;55.89;95907.06;4235937;27;5632;-66
2023/09/22 06:50:42;;;;;;;;;;;;;;;20.17;55.77;95904.13;4235888;28;5742;-63
2023/09/22 06:52:45;;;;;;;;;;;;;;;20.19;55.81;95893.91;4235390;28;5605;-63
2023/09/22 06:54:49;;;;;;;;;;;;;;;20.20;55.99;95882.91;4235750;28;5606;-64
2023/09/22 06:56:52;;;;;;;;;;;;;;;20.21;55.84;95889.88;4234648;28;7079;-64
2023/09/22 06:58:57;;;;;;;;;;;;;;;20.23;55.57;95881.53;4235553;28;5602;-64
2023/09/22 07:01:10;;;;;;;;;;;;;;;20.23;55.54;95876.97;4235743;28;5673;-64
2023/09/22 07:03:14;;;;;;;;;;;;;;;20.21;55.63;95889.88;4235742;28;5792;-64
2023/09/22 07:05:18;;;;;;;;;;;;;;;20.20;55.54;95880.22;4235819;28;5750;-65
2023/09/22 07:07:22;;;;;;;;;;;;;;;20.18;55.37;95893.09;4235807;27;5590;-65
2023/09/22 07:09:25;;;;;;;;;;;;;;;20.16;55.34;95887.22;4217533;28;5680;-65
2023/09/22 07:11:28;;;;;;;;;;;;;;;20.17;55.32;95891.50;4227703;28;5817;-65
2023/09/22 07:13:34;;;;;;;;;;;;;;;20.16;54.92;95887.22;4235775;28;5746;-65
2023/09/22 07:15:40;;;;;;;;;;;;;;;20.15;54.96;95896.31;4234499;28;5643;-65
2023/09/22 07:17:44;;;;;;;;;;;;;;;20.18;55.02;95889.63;4235475;28;6133;-65
2023/09/22 07:19:47;;;;;;;;;;;;;;;20.19;54.66;95891.22;4235358;28;5606;-65
2023/09/22 07:21:51;;;;;;;;;;;;;;;20.18;54.88;95901.16;4235218;28;5655;-65
2023/09/22 07:23:55;;;;;;;;;;;;;;;20.18;54.94;95895.78;4235370;28;5718;-65
2023/09/22 07:25:59;;;;;;;;;;;;;;;20.18;54.61;95901.16;4235322;28;5640;-65
2023/09/22 07:28:02;;;;;;;;;;;;;;;20.20;54.96;95893.63;4235175;28;5680;-65
2023/09/22 07:30:10;;;;;;;;;;;;;;;20.24;54.55;95897.34;4235455;28;5777;-65
2023/09/22 07:32:15;;;;;;;;;;;;;;;20.25;54.48;95898.97;4235317;28;5605;-65
2023/09/22 07:34:18;;;;;;;;;;;;;;;20.25;54.57;95890.91;4235093;28;6040;-65
2023/09/22 07:36:21;;;;;;;;;;;;;;;20.27;54.81;95896.00;4234900;28;5595;-65
2023/09/22 07:38:24;;;;;;;;;;;;;;;20.30;54.74;95895.47;4234751;28;5614;-65
2023/09/22 07:40:27;;;;;;;;;;;;;;;20.31;54.81;95897.88;4218686;28;5755;-65
2023/09/22 07:42:31;;;;;;;;;;;;;;;20.31;54.79;95897.88;4235199;27;5855;-66
2023/09/22 07:44:34;;;;;;;;;;;;;;;20.32;54.50;95902.16;4235168;28;5718;-65
2023/09/22 07:46:39;;;;;;;;;;;;;;;20.30;54.74;95904.31;4235023;28;5594;-65
2023/09/22 07:48:45;;;;;;;;;;;;;;;20.33;54.67;95908.31;4234978;28;5659;-64
2023/09/22 07:50:48;;;;;;;;;;;;;;;20.34;54.99;95912.63;4234862;28;5589;-64
2023/09/22 07:52:52;;;;;;;;;;;;;;;20.34;54.93;95913.41;4234457;28;5672;-64
2023/09/22 07:54:55;;;;;;;;;;;;;;;20.35;54.44;95914.22;4235076;28;5693;-65
2023/09/22 07:57:01;;;;;;;;;;;;;;;20.35;54.45;95909.66;4234824;28;5861;-65
2023/09/22 07:59:05;;;;;;;;;;;;;;;20.38;54.26;95912.84;4234530;27;5748;-65
2023/09/22 08:01:16;;;;;;;;;;;;;;;20.38;54.82;95915.53;4234964;28;5609;-65
2023/09/22 08:03:20;;;;;;;;;;;;;;;20.41;54.75;95925.75;4234535;28;5659;-65
2023/09/22 08:05:24;;;;;;;;;;;;;;;20.40;54.40;95919.56;4234850;28;5645;-65
2023/09/22 08:07:27;;;;;;;;;;;;;;;20.42;54.36;95928.19;4226475;28;5691;-65
2023/09/22 08:09:30;;;;;;;;;;;;;;;20.44;54.69;95938.63;4234528;28;5118;-65
2023/09/22 08:11:34;;;;;;;;;;;;;;;20.45;54.52;95937.56;4234537;28;5717;-65
2023/09/22 08:13:37;;;;;;;;;;;;;;;20.45;54.42;95934.88;4207759;28;5647;-65
2023/09/22 08:15:40;;;;;;;;;;;;;;;20.48;54.59;95942.38;4234593;28;5605;-66
2023/09/22 08:17:46;;;;;;;;;;;;;;;20.50;54.44;95945.56;4234339;28;5606;-65
2023/09/22 08:19:49;;;;;;;;;;;;;;;20.52;54.80;95941.56;4234477;28;5668;-65
2023/09/22 08:21:54;;;;;;;;;;;;;;;20.53;54.62;95947.72;4234370;28;5784;-65
2023/09/22 08:23:58;;;;;;;;;;;;;;;20.52;54.52;95946.91;4234370;28;6511;-65
2023/09/22 08:26:05;;;;;;;;;;;;;;;20.51;54.32;95939.94;4234234;28;5643;-65
2023/09/22 08:28:09;;;;;;;;;;;;;;;20.51;53.93;95947.19;4234501;28;5667;-65
2023/09/22 08:30:15;;;;;;;;;;;;;;;20.54;53.76;95946.66;4234377;27;5778;-65
2023/09/22 08:32:18;;;;;;;;;;;;;;;20.56;54.13;95947.97;4234398;28;5631;-71
2023/09/22 08:34:21;;;;;;;;;;;;;;;20.53;53.95;95953.91;4234198;28;5648;-72
2023/09/22 08:36:24;;;;;;;;;;;;;;;20.59;53.54;95954.66;4216333;28;5608;-71
2023/09/22 08:38:29;;;;;;;;;;;;;;;20.63;53.81;95951.16;4225996;28;5754;-71
2023/09/22 08:40:32;;;;;;;;;;;;;;;20.70;53.60;95950.84;4234398;28;5607;-71
2023/09/22 08:42:35;;;;;;;;;;;;;;;20.70;53.44;95950.84;4234480;28;5647;-71
2023/09/22 08:44:38;;;;;;;;;;;;;;;20.74;53.16;95946.53;4234430;28;6388;-72
2023/09/22 08:46:42;;;;;;;;;;;;;;;20.78;53.39;95950.25;4234193;28;5659;-72
2023/09/22 08:48:46;;;;;;;;;;;;;;;20.80;52.75;95956.16;4234361;28;5775;-71
2023/09/22 08:50:49;;;;;;;;;;;;;;;20.84;53.23;95953.72;4234261;28;5093;-71
2023/09/22 08:52:52;;;;;;;;;;;;;;;20.86;53.14;95956.94;4233988;28;5648;-71
2023/09/22 08:54:56;;;;;;;;;;;;;;;20.89;52.88;95957.19;4234480;27;5100;-71
2023/09/22 08:56:59;;;;;;;;;;;;;;;20.89;52.73;95951.81;4234350;28;5642;-71
2023/09/22 08:59:03;;;;;;;;;;;;;;;20.90;52.56;95950.72;4234172;28;5685;-72
2023/09/22 09:01:06;;;;;;;;;;;;;;;20.93;52.83;95949.34;4234247;28;5764;-72
2023/09/22 09:03:10;;;;;;;;;;;;;;;20.94;52.61;95946.38;4233971;28;5586;-72
2023/09/22 09:05:20;;;;;;;;;;;;;;;21.00;52.66;95954.41;4234277;28;5658;-72
2023/09/22 09:07:23;;;;;;;;;;;;;;;21.01;52.56;95948.75;4234247;28;5769;-72
2023/09/22 09:09:26;;;;;;;;;;;;;;;21.05;52.63;95951.69;4225604;28;5915;-72
2023/09/22 09:11:31;;;;;;;;;;;;;;;21.08;52.58;95943.09;4234030;28;5760;-72
2023/09/22 09:13:34;;;;;;;;;;;;;;;21.09;52.96;95950.88;4233936;28;6363;-72
2023/09/22 09:15:45;;;;;;;;;;;;;;;21.09;52.39;95947.38;4234063;28;5598;-72
2023/09/22 09:18:02;;;;;;;;;;;;;;;21.09;52.47;95947.38;4234091;28;5727;-72
2023/09/22 09:20:07;;;;;;;;;;;;;;;21.08;52.72;95951.16;4231127;28;5598;-81
2023/09/22 09:22:12;;;;;;;;;;;;;;;21.14;52.35;95956.19;4224811;27;5597;-83
2023/09/22 09:24:23;;;;;;;;;;;;;;;21.13;52.44;95951.09;4223226;28;5678;-83
2023/09/22 09:26:29;;;;;;;;;;;;;;;21.12;52.19;95946.81;4226966;28;5602;-83
2023/09/22 09:28:40;;;;;;;;;;;;;;;21.14;51.92;95955.38;4235246;28;5597;-83
2023/09/22 09:30:52;;;;;;;;;;;;;;;21.15;52.38;95959.69;4235415;28;5693;-83
2023/09/22 09:33:05;;;;;;;;;;;;;;;21.16;51.90;95954.00;4235390;28;5647;-83
2023/09/22 09:35:09;;;;;;;;;;;;;;;21.18;51.54;95954.56;4235182;28;5614;-84
2023/09/22 09:37:13;;;;;;;;;;;;;;;21.18;51.67;95956.44;4234830;28;5594;-83
2023/09/22 09:39:18;;;;;;;;;;;;;;;21.20;51.07;95954.28;4235723;28;5585;-83
2023/09/22 09:41:22;;;;;;;;;;;;;;;21.20;51.02;95957.78;4229656;28;5742;-83
2023/09/22 09:43:25;;;;;;;;;;;;;;;21.21;50.84;95951.31;4229835;28;7243;-83
2023/09/22 09:45:32;;;;;;;;;;;;;;;21.23;50.79;95961.78;4237942;28;5692;-82
2023/09/22 09:47:39;;;;;;;;;;;;;;;21.23;50.21;95953.72;4229596;28;5849;-83
2023/09/22 09:49:43;;;;;;;;;;;;;;;21.29;50.00;95954.50;4223910;28;5669;-82
2023/09/22 09:51:49;;;;;;;;;;;;;;;21.31;49.89;95958.53;4237747;28;5713;-82
2023/09/22 09:53:57;;;;;;;;;;;;;;;21.33;49.88;95959.03;4237635;28;5610;-82
2023/09/22 09:56:02;;;;;;;;;;;;;;;21.37;49.25;95957.38;4238045;28;5817;-82
2023/09/22 09:58:06;;;;;;;;;;;;;;;21.42;49.70;95965.41;4232512;28;5678;-82
2023/09/22 10:00:12;;;;;;;;;;;;;;;21.42;49.25;95951.97;4227432;28;5647;-82
2023/09/22 10:02:20;;;;;;;;;;;;;;;21.43;49.02;95958.16;4237585;28;5726;-82
2023/09/22 10:04:24;;;;;;;;;;;;;;;21.42;48.87;95956.56;4229770;27;5601;-83
2023/09/22 10:06:28;;;;;;;;;;;;;;;21.42;48.96;95954.66;4221609;28;5669;-84
2023/09/22 10:08:44;;;;;;;;;;;;;;;21.44;48.92;95959.75;4237756;28;5821;-83
2023/09/22 10:10:48;;;;;;;;;;;;;;;21.44;48.83;95957.88;4229287;28;5690;-82
2023/09/22 10:12:51;;;;;;;;;;;;;;;21.45;48.84;95956.78;4237927;28;5661;-82
2023/09/22 10:15:01;;;;;;;;;;;;;;;21.44;48.32;95952.50;4235862;28;5894;-82
2023/09/22 10:17:04;;;;;;;;;;;;;;;21.49;48.77;95954.31;4229354;28;5665;-81
2023/09/22 10:19:09;;;;;;;;;;;;;;;21.49;48.65;95952.44;4235236;28;7673;-82
2023/09/22 10:21:32;;;;;;;;;;;;;;;21.48;48.32;95952.72;4237446;28;5594;-83
2023/09/22 10:23:35;;;;;;;;;;;;;;;21.49;48.08;95957.81;4230677;28;5606;-82
2023/09/22 10:25:39;;;;;;;;;;;;;;;21.48;48.23;95956.22;4235595;28;5622;-82
2023/09/22 10:27:54;;;;;;;;;;;;;;;21.48;48.37;95948.16;4223485;28;5678;-82
2023/09/22 10:30:07;;;;;;;;;;;;;;;21.54;48.57;95958.88;4237515;28;5813;-82
2023/09/22 10:32:27;;;;;;;;;;;;;;;21.58;48.23;95959.91;4222785;28;5717;-82
2023/09/22 10:34:48;;;;;;;;;;;;;;;21.59;48.25;95953.44;4229626;28;5645;-82
2023/09/22 10:36:52;;;;;;;;;;;;;;;21.59;47.82;95953.44;4237536;28;5594;-82
2023/09/22 10:38:56;;;;;;;;;;;;;;;21.58;47.83;95954.53;4233091;28;5686;-76
2023/09/22 10:41:05;;;;;;;;;;;;;;;21.58;47.44;95949.94;4223819;28;5644;-64
2023/09/22 10:43:10;;;;;;;;;;;;;;;21.58;47.43;95944.56;4235860;28;5610;-65
2023/09/22 10:45:14;;;;;;;;;;;;;;;21.58;47.39;95944.56;4235628;28;5632;-64
2023/09/22 10:47:15;;;;;;;;;;;;;;;21.60;46.38;95946.97;4227163;28;5649;-63
2023/09/22 10:49:28;;;;;;;;;;;;;;;21.54;46.27;95943.53;4217310;28;5597;-65
2023/09/22 10:51:45;;;;;;;;;;;;;;;21.55;46.29;95938.97;4227853;28;5610;-65
2023/09/22 10:53:57;;;;;;;;;;;;;;;21.54;46.68;95940.84;4235513;28;5714;-65
2023/09/22 10:56:00;;;;;;;;;;;;;;;21.55;45.92;95945.13;4222335;28;5737;-65
2023/09/22 10:58:05;;;;;;;;;;;;;;;21.54;45.67;95942.75;4232663;28;5594;-65
2023/09/22 11:00:13;;;;;;;;;;;;;;;21.49;44.99;95947.06;4235788;28;5606;-66
2023/09/22 11:02:22;;;;;;;;;;;;;;;21.48;44.60;95950.84;4229198;28;5790;-66
2023/09/22 11:04:40;;;;;;;;;;;;;;;21.46;44.83;95953.00;4226955;28;5680;-66
2023/09/22 11:06:47;;;;;;;;;;;;;;;21.49;45.11;95947.06;4233010;28;5651;-66
2023/09/22 11:08:52;;;;;;;;;;;;;;;21.49;45.13;95947.06;4222034;28;5590;-65
2023/09/22 11:10:56;;;;;;;;;;;;;;;21.51;45.43;95944.88;4231026;28;5669;-66
2023/09/22 11:12:59;;;;;;;;;;;;;;;21.53;45.25;95941.94;4231717;28;5750;-65
2023/09/22 11:15:03;;;;;;;;;;;;;;;21.56;45.63;95944.06;4232042;28;5927;-66
2023/09/22 11:17:06;;;;;;;;;;;;;;;21.57;45.33;95950.22;4232664;28;5800;-66
2023/09/22 11:19:09;;;;;;;;;;;;;;;21.54;45.33;95943.53;4228874;28;5682;-66
2023/09/22 11:21:14;;;;;;;;;;;;;;;21.56;45.08;95940.56;4234084;28;5648;-66
2023/09/22 11:23:20;;;;;;;;;;;;;;;21.55;45.57;95944.34;4234941;28;5809;-66
2023/09/22 11:25:24;;;;;;;;;;;;;;;21.58;45.34;95943.75;4217895;28;5788;-66
2023/09/22 11:27:27;;;;;;;;;;;;;;;21.58;45.39;95941.88;4227092;28;5651;-65
2023/09/22 11:29:31;;;;;;;;;;;;;;;21.61;45.45;95932.44;4235007;28;5723;-66
2023/09/22 11:31:34;;;;;;;;;;;;;;;21.63;45.23;95941.00;4235169;27;5709;-66
2023/09/22 11:33:37;;;;;;;;;;;;;;;21.63;45.40;95944.53;4234769;28;5681;-65
2023/09/22 11:35:40;;;;;;;;;;;;;;;21.64;45.58;95943.44;4234671;28;5703;-66
2023/09/22 11:37:45;;;;;;;;;;;;;;;21.64;45.92;95946.13;4232253;28;5781;-67
2023/09/22 11:39:53;;;;;;;;;;;;;;;21.67;45.75;95939.38;4220973;28;5578;-66
2023/09/22 11:41:56;;;;;;;;;;;;;;;21.68;45.37;95941.78;4234848;28;5741;-65
2023/09/22 11:44:00;;;;;;;;;;;;;;;21.73;45.40;95946.28;4226434;28;5609;-65
2023/09/22 11:46:10;;;;;;;;;;;;;;;21.76;45.62;95948.44;4226272;28;6271;-66
2023/09/22 11:48:13;;;;;;;;;;;;;;;21.81;45.38;95948.38;4227859;28;5673;-66
2023/09/22 11:50:25;;;;;;;;;;;;;;;21.83;45.81;95951.56;4224838;28;5578;-66
2023/09/22 11:52:29;;;;;;;;;;;;;;;21.83;45.49;95948.88;4234148;28;5783;-67
2023/09/22 11:54:35;;;;;;;;;;;;;;;21.85;45.57;95949.41;4233332;28;5671;-66
2023/09/22 11:56:40;;;;;;;;;;;;;;;21.87;45.03;95949.13;4228098;28;5755;-66
2023/09/22 11:58:44;;;;;;;;;;;;;;;21.86;44.73;95948.34;4232580;28;5595;-66
2023/09/22 12:00:47;;;;;;;;;;;;;;;21.84;44.76;95939.72;4234246;28;5643;-66
2023/09/22 12:02:49;;;;;;;;;;;;;;;21.86;45.35;95940.28;4234177;28;5821;-66
2023/09/22 12:04:52;;;;;;;;;;;;;;;21.89;45.48;95938.88;4234547;28;5689;-66
2023/09/22 12:06:56;;;;;;;;;;;;;;;21.89;45.06;95944.28;4234296;28;5644;-66
2023/09/22 12:08:58;;;;;;;;;;;;;;;21.89;45.44;95952.34;4234138;28;5599;-65
2023/09/22 12:11:03;;;;;;;;;;;;;;;21.90;45.17;95945.88;4234177;28;5648;-65
2023/09/22 12:13:07;;;;;;;;;;;;;;;21.90;45.25;95945.88;4225791;28;5598;-65
2023/09/22 12:15:11;;;;;;;;;;;;;;;21.89;45.20;95945.06;4230339;28;5766;-65
2023/09/22 12:17:14;;;;;;;;;;;;;;;21.89;45.46;95947.75;4232478;28;5676;-66
2023/09/22 12:19:17;;;;;;;;;;;;;;;21.90;45.52;95945.88;4234119;28;6291;-66
2023/09/22 12:21:20;;;;;;;;;;;;;;;21.91;45.33;95945.59;4233975;28;5597;-65
2023/09/22 12:23:23;;;;;;;;;;;;;;;21.95;45.40;95948.50;4234101;28;5601;-66
2023/09/22 12:25:26;;;;;;;;;;;;;;;21.97;45.44;95940.94;4217136;28;5772;-66
2023/09/22 12:27:29;;;;;;;;;;;;;;;21.96;45.00;95945.50;4227079;28;5610;-66
2023/09/22 12:29:33;;;;;;;;;;;;;;;21.95;44.90;95941.22;4226193;28;5685;-70
2023/09/22 12:31:38;;;;;;;;;;;;;;;21.93;45.01;95935.34;4234553;28;5653;-75
2023/09/22 12:33:41;;;;;;;;;;;;;;;21.94;44.69;95936.94;4235095;28;5598;-79
2023/09/22 12:35:44;;;;;;;;;;;;;;;21.95;44.64;95930.47;4228908;28;5545;-73
2023/09/22 12:37:49;;;;;;;;;;;;;;;21.98;44.97;95927.22;4235271;28;5749;-76
2023/09/22 12:39:52;;;;;;;;;;;;;;;22.00;44.73;95935.81;4228382;28;5594;-67
2023/09/22 12:41:54;;;;;;;;;;;;;;;22.04;45.21;95939.50;4227511;28;5598;-67
2023/09/22 12:43:57;;;;;;;;;;;;;;;22.06;44.65;95940.06;4229516;28;5747;-67
2023/09/22 12:46:01;;;;;;;;;;;;;;;22.05;44.80;95949.19;4232797;28;5099;-66
2023/09/22 12:48:05;;;;;;;;;;;;;;;22.05;44.84;95941.13;4234082;28;5636;-67
2023/09/22 12:50:09;;;;;;;;;;;;;;;22.04;44.66;95947.59;4225280;28;5594;-67
2023/09/22 12:52:12;;;;;;;;;;;;;;;22.05;44.64;95941.13;4227159;28;5677;-67
2023/09/22 12:54:15;;;;;;;;;;;;;;;22.08;44.13;95943.28;4232330;28;5622;-67
2023/09/22 12:56:17;;;;;;;;;;;;;;;22.10;44.51;95940.31;4208105;28;5647;-65
2023/09/22 12:58:20;;;;;;;;;;;;;;;22.10;44.11;95942.19;4228391;28;5643;-64
2023/09/22 13:00:23;;;;;;;;;;;;;;;22.10;43.96;95937.59;4225533;28;5645;-64
2023/09/22 13:02:28;;;;;;;;;;;;;;;22.11;43.67;95951.88;4227579;28;5738;-65
2023/09/22 13:04:33;;;;;;;;;;;;;;;22.10;43.75;95943.00;4217703;28;5777;-65
2023/09/22 13:06:37;;;;;;;;;;;;;;;22.11;43.08;95943.78;4233875;28;5613;-64
2023/09/22 13:08:40;;;;;;;;;;;;;;;22.10;42.83;95950.28;4229475;28;5821;-64
2023/09/22 13:10:43;;;;;;;;;;;;;;;22.08;42.82;95945.16;4225803;28;6199;-64
2023/09/22 13:12:46;;;;;;;;;;;;;;;22.09;42.95;95941.41;4231850;28;5651;-72
2023/09/22 13:14:53;;;;;;;;;;;;;;;22.09;42.67;95938.69;4231181;28;5594;-73
2023/09/22 13:16:55;;;;;;;;;;;;;;;22.08;42.67;95943.28;4228216;28;5586;-74
2023/09/22 13:19:00;;;;;;;;;;;;;;;22.08;42.66;95932.50;4231971;28;5684;-73
2023/09/22 13:21:03;;;;;;;;;;;;;;;22.09;42.38;95941.41;4228564;28;5685;-78
2023/09/22 13:23:06;;;;;;;;;;;;;;;22.11;42.80;95941.09;4233082;28;5598;-75
2023/09/22 13:25:09;;;;;;;;;;;;;;;22.12;42.79;95940.81;4218214;28;5699;-73
2023/09/22 13:27:13;;;;;;;;;;;;;;;22.13;42.40;95938.91;4218244;28;5620;-69
2023/09/22 13:29:18;;;;;;;;;;;;;;;22.15;42.49;95936.75;4212144;28;5631;-83
2023/09/22 13:31:20;;;;;;;;;;;;;;;22.14;42.12;95929.75;4225944;28;5616;-77
2023/09/22 13:33:28;;;;;;;;;;;;;;;22.13;42.24;95928.16;4210353;28;5083;-75
2023/09/22 13:35:34;;;;;;;;;;;;;;;22.11;42.21;95936.53;4229020;28;5696;-77
2023/09/22 13:37:37;;;;;;;;;;;;;;;22.11;42.59;95928.44;4225959;28;5807;-64
2023/09/22 13:39:40;;;;;;;;;;;;;;;22.11;42.41;95936.53;4228938;28;5590;-62
2023/09/22 13:41:44;;;;;;;;;;;;;;;22.11;42.07;95938.41;4223029;28;5718;-64
2023/09/22 13:43:47;;;;;;;;;;;;;;;22.11;42.21;95933.81;4230844;28;5618;-64
2023/09/22 13:45:51;;;;;;;;;;;;;;;22.12;41.86;95937.31;4228047;28;5681;-64
2023/09/22 13:47:54;;;;;;;;;;;;;;;22.14;42.25;95932.44;4228962;28;5776;-66
2023/09/22 13:49:57;;;;;;;;;;;;;;;22.14;42.11;95935.94;4231458;28;5602;-66
2023/09/22 13:52:03;;;;;;;;;;;;;;;22.16;42.34;95939.13;4233216;28;5598;-66
2023/09/22 13:54:06;;;;;;;;;;;;;;;22.16;42.39;95938.34;4228420;28;5735;-66
2023/09/22 13:56:15;;;;;;;;;;;;;;;22.17;42.25;95940.75;4226758;28;5745;-66
2023/09/22 13:58:18;;;;;;;;;;;;;;;22.18;42.08;95931.56;4227371;28;5796;-65
2023/09/22 14:00:21;;;;;;;;;;;;;;;22.19;41.87;95933.16;4228717;28;6583;-65
2023/09/22 14:02:24;;;;;;;;;;;;;;;22.20;41.50;95933.97;4227389;28;6881;-66
2023/09/22 14:04:27;;;;;;;;;;;;;;;22.20;42.04;95928.59;4222747;27;5808;-66
2023/09/22 14:06:30;;;;;;;;;;;;;;;22.20;41.87;95933.97;4231202;28;5665;-72
2023/09/22 14:08:35;;;;;;;;;;;;;;;22.21;41.47;95935.59;4227796;28;5823;-72
2023/09/22 14:10:38;;;;;;;;;;;;;;;22.23;41.92;95925.34;4226936;28;5601;-69
2023/09/22 14:12:41;;;;;;;;;;;;;;;22.23;42.05;95918.06;4229442;28;5732;-70
2023/09/22 14:14:44;;;;;;;;;;;;;;;22.24;41.58;95922.34;4229801;28;5853;-71
2023/09/22 14:16:47;;;;;;;;;;;;;;;22.26;41.85;95924.75;4225228;28;5738;-71
2023/09/22 14:18:51;;;;;;;;;;;;;;;22.26;41.79;95925.56;4229294;28;5795;-71
2023/09/22 14:20:54;;;;;;;;;;;;;;;22.27;41.70;95924.47;4223387;28;5669;-72
2023/09/22 14:22:56;;;;;;;;;;;;;;;22.27;41.67;95915.59;4225487;28;5801;-71
2023/09/22 14:25:00;;;;;;;;;;;;;;;22.27;41.50;95919.09;4228900;28;5111;-65
2023/09/22 14:27:04;;;;;;;;;;;;;;;22.24;41.80;95914.28;4222989;28;5688;-65
2023/09/22 14:29:07;;;;;;;;;;;;;;;22.26;41.57;95916.69;4223732;28;5593;-65
2023/09/22 14:31:14;;;;;;;;;;;;;;;22.26;41.89;95912.09;4221550;28;5680;-64
2023/09/22 14:33:17;;;;;;;;;;;;;;;22.26;41.67;95906.72;4231670;28;5723;-65
2023/09/22 14:35:20;;;;;;;;;;;;;;;22.29;41.25;95905.31;4225410;28;5692;-64
2023/09/22 14:37:23;;;;;;;;;;;;;;;22.28;41.16;95904.53;4225249;28;5826;-66
2023/09/22 14:39:26;;;;;;;;;;;;;;;22.27;41.55;95905.63;4221516;28;5616;-66
2023/09/22 14:41:30;;;;;;;;;;;;;;;22.29;41.41;95910.72;4225458;28;5723;-66
2023/09/22 14:43:33;;;;;;;;;;;;;;;22.29;41.94;95910.72;4223029;27;5724;-65
2023/09/22 14:45:37;;;;;;;;;;;;;;;22.29;41.66;95910.72;4217058;28;5712;-65
2023/09/22 14:47:40;;;;;;;;;;;;;;;22.29;41.81;95908.81;4218642;28;6659;-65
2023/09/22 14:49:43;;;;;;;;;;;;;;;22.32;41.60;95912.84;4229274;28;5685;-66
2023/09/22 14:51:47;;;;;;;;;;;;;;;22.31;41.72;95898.59;4217398;28;5713;-67
2023/09/22 14:53:50;;;;;;;;;;;;;;;22.31;41.75;95908.53;4216688;28;5780;-67
2023/09/22 14:55:58;;;;;;;;;;;;;;;22.31;41.38;95912.06;4214500;28;5708;-69
2023/09/22 14:58:03;;;;;;;;;;;;;;;22.31;41.56;95905.84;4221759;28;5624;-68
2023/09/22 15:00:12;;;;;;;;;;;;;;;22.32;41.93;95910.16;4222734;28;5790;-70
2023/09/22 15:02:15;;;;;;;;;;;;;;;22.30;41.54;95906.94;4220661;28;5778;-65
2023/09/22 15:04:18;;;;;;;;;;;;;;;22.32;41.60;95910.16;4224880;28;6211;-64
2023/09/22 15:06:21;;;;;;;;;;;;;;;22.34;41.66;95914.16;4224551;28;5735;-74
2023/09/22 15:08:25;;;;;;;;;;;;;;;22.35;41.65;95914.97;4227516;28;6107;-75
2023/09/22 15:10:28;;;;;;;;;;;;;;;22.33;41.92;95909.88;4220547;28;6459;-66
2023/09/22 15:12:31;;;;;;;;;;;;;;;22.33;41.76;95907.16;4222570;28;5704;-68
2023/09/22 15:14:36;;;;;;;;;;;;;;;22.35;41.77;95907.69;4224473;28;5819;-68
2023/09/22 15:16:39;;;;;;;;;;;;;;;22.35;41.91;95915.75;4226779;28;5892;-67
2023/09/22 15:18:41;;;;;;;;;;;;;;;22.36;42.02;95911.16;4230314;28;5880;-66
2023/09/22 15:20:44;;;;;;;;;;;;;;;22.36;41.73;95916.56;4225281;28;5807;-64
2023/09/22 15:22:47;;;;;;;;;;;;;;;22.36;41.64;95916.56;4225321;27;5697;-64
2023/09/22 15:24:50;;;;;;;;;;;;;;;22.38;42.06;95919.75;4217900;28;5586;-65
2023/09/22 15:26:54;;;;;;;;;;;;;;;22.37;41.75;95928.94;4224496;28;5685;-65
2023/09/22 15:28:57;;;;;;;;;;;;;;;22.35;42.25;95925.72;4221921;28;6326;-65
2023/09/22 15:31:01;;;;;;;;;;;;;;;22.33;42.41;95934.09;4232143;28;5594;-65
2023/09/22 15:33:05;;;;;;;;;;;;;;;22.35;42.50;95933.81;4229979;28;5697;-65
2023/09/22 15:35:10;;;;;;;;;;;;;;;22.35;42.60;95942.69;4229956;27;5921;-65
2023/09/22 15:37:13;;;;;;;;;;;;;;;22.32;42.29;95937.88;4216787;28;5624;-65
2023/09/22 15:39:15;;;;;;;;;;;;;;;22.31;42.58;95947.06;4227980;28;6272;-65
2023/09/22 15:41:18;;;;;;;;;;;;;;;22.29;42.46;95943.81;4220357;27;5633;-65
2023/09/22 15:43:20;;;;;;;;;;;;;;;22.28;42.63;95947.59;4223545;28;5618;-65
2023/09/22 15:45:24;;;;;;;;;;;;;;;22.27;42.73;95950.59;4229828;28;5635;-66
2023/09/22 15:47:28;;;;;;;;;;;;;;;22.27;42.65;95954.09;4219792;28;5711;-65
2023/09/22 15:49:31;;;;;;;;;;;;;;;22.28;42.93;95953.00;4233057;28;5743;-66
2023/09/22 15:51:34;;;;;;;;;;;;;;;22.29;43.20;95959.16;4229338;28;5630;-64
2023/09/22 15:53:37;;;;;;;;;;;;;;;22.28;43.15;95962.97;4231257;27;5597;-66
2023/09/22 15:55:40;;;;;;;;;;;;;;;22.27;43.40;95962.16;4233406;28;5590;-66
2023/09/22 15:57:43;;;;;;;;;;;;;;;22.30;43.32;95966.16;4231961;28;6353;-65
2023/09/22 15:59:46;;;;;;;;;;;;;;;22.28;43.33;95971.03;4232364;28;6300;-65